Terminal Aerodrome Forecast
Issued by NWS North Platte, NE

Home | Current Version | Previous Version | Text Only | Print | Product List | Glossary On
Versions: 1 2 3 4 5 6 7 8 9 10 11 12 13 14 15 16 17 18 19 20 21 22 23 24 25 26 27
317
FTUS43 KLBF 261723
TAFLBF
TAF
KLBF 261723Z 2618/2718 34014G20KT P6SM FEW020
     FM270000 36011KT P6SM SKC
     FM270300 03004KT P6SM SCT250
     FM270900 VRB03KT P6SM BKN100
     FM271500 11007KT P6SM BKN050=

USA.gov is the U.S. government's official web portal to all federal, state and local government web resources and services.